sensor_id;sensor_type;location;lat;lon;timestamp;temperature;humidity
15789;DHT22;59075;50.670;6.474;2022-07-12T00:01:24;20.80;99.90
15789;DHT22;59075;50.670;6.474;2022-07-12T00:06:19;20.90;99.90
15789;DHT22;59075;50.670;6.474;2022-07-12T00:13:40;20.70;99.90
15789;DHT22;59075;50.670;6.474;2022-07-12T00:16:07;20.80;99.90
15789;DHT22;59075;50.670;6.474;2022-07-12T00:18:33;20.70;99.90
15789;DHT22;59075;50.670;6.474;2022-07-12T00:21:01;20.70;99.90
15789;DHT22;59075;50.670;6.474;2022-07-12T00:23:28;20.80;99.90
15789;DHT22;59075;50.670;6.474;2022-07-12T00:25:55;20.70;99.90
15789;DHT22;59075;50.670;6.474;2022-07-12T00:28:21;20.70;99.90
15789;DHT22;59075;50.670;6.474;2022-07-12T00:30:48;20.70;99.90
15789;DHT22;59075;50.670;6.474;2022-07-12T00:33:15;20.70;99.90
15789;DHT22;59075;50.670;6.474;2022-07-12T00:35:41;20.70;99.90
15789;DHT22;59075;50.670;6.474;2022-07-12T00:38:09;20.60;99.90
15789;DHT22;59075;50.670;6.474;2022-07-12T00:40:36;20.70;99.90
15789;DHT22;59075;50.670;6.474;2022-07-12T00:43:03;20.70;99.90
15789;DHT22;59075;50.670;6.474;2022-07-12T00:45:29;20.60;99.90
15789;DHT22;59075;50.670;6.474;2022-07-12T00:47:56;20.60;99.90
15789;DHT22;59075;50.670;6.474;2022-07-12T00:50:23;20.60;99.90
15789;DHT22;59075;50.670;6.474;2022-07-12T00:52:52;20.60;99.90
15789;DHT22;59075;50.670;6.474;2022-07-12T00:55:22;20.60;99.90
15789;DHT22;59075;50.670;6.474;2022-07-12T00:57:50;20.60;99.90
15789;DHT22;59075;50.670;6.474;2022-07-12T01:00:21;20.60;99.90
15789;DHT22;59075;50.670;6.474;2022-07-12T01:02:48;20.60;99.90
15789;DHT22;59075;50.670;6.474;2022-07-12T01:05:15;20.60;99.90
15789;DHT22;59075;50.670;6.474;2022-07-12T01:07:43;20.60;99.90
15789;DHT22;59075;50.670;6.474;2022-07-12T01:10:10;20.60;99.90
15789;DHT22;59075;50.670;6.474;2022-07-12T01:12:38;20.60;99.90
15789;DHT22;59075;50.670;6.474;2022-07-12T01:15:06;20.70;99.90
15789;DHT22;59075;50.670;6.474;2022-07-12T01:17:32;20.60;99.90
15789;DHT22;59075;50.670;6.474;2022-07-12T01:20:00;20.60;99.90
15789;DHT22;59075;50.670;6.474;2022-07-12T01:22:29;20.60;99.90
15789;DHT22;59075;50.670;6.474;2022-07-12T01:24:59;20.60;99.90
15789;DHT22;59075;50.670;6.474;2022-07-12T01:29:54;20.60;99.90
15789;DHT22;59075;50.670;6.474;2022-07-12T01:32:21;20.50;99.90
15789;DHT22;59075;50.670;6.474;2022-07-12T01:34:53;20.70;99.90
15789;DHT22;59075;50.670;6.474;2022-07-12T01:37:21;20.60;99.90
15789;DHT22;59075;50.670;6.474;2022-07-12T01:39:49;20.60;99.90
15789;DHT22;59075;50.670;6.474;2022-07-12T01:42:18;20.60;99.90
15789;DHT22;59075;50.670;6.474;2022-07-12T01:44:45;20.60;99.90
15789;DHT22;59075;50.670;6.474;2022-07-12T01:47:12;20.50;99.90
15789;DHT22;59075;50.670;6.474;2022-07-12T01:49:39;20.50;99.90
15789;DHT22;59075;50.670;6.474;2022-07-12T01:52:06;20.60;99.90
15789;DHT22;59075;50.670;6.474;2022-07-12T01:57:01;20.50;99.90
15789;DHT22;59075;50.670;6.474;2022-07-12T01:59:29;20.50;99.90
15789;DHT22;59075;50.670;6.474;2022-07-12T02:01:56;20.50;99.90
15789;DHT22;59075;50.670;6.474;2022-07-12T02:06:50;20.40;99.90
15789;DHT22;59075;50.670;6.474;2022-07-12T02:14:12;20.30;99.90
15789;DHT22;59075;50.670;6.474;2022-07-12T02:16:41;20.40;99.90
15789;DHT22;59075;50.670;6.474;2022-07-12T02:19:09;20.40;99.90
15789;DHT22;59075;50.670;6.474;2022-07-12T02:21:36;20.30;99.90
15789;DHT22;59075;50.670;6.474;2022-07-12T02:24:04;20.40;99.90
15789;DHT22;59075;50.670;6.474;2022-07-12T02:26:32;20.30;99.90
15789;DHT22;59075;50.670;6.474;2022-07-12T02:31:26;20.30;99.90
15789;DHT22;59075;50.670;6.474;2022-07-12T02:33:54;20.30;99.90
15789;DHT22;59075;50.670;6.474;2022-07-12T02:36:20;20.20;99.90
15789;DHT22;59075;50.670;6.474;2022-07-12T02:38:47;20.30;99.90
15789;DHT22;59075;50.670;6.474;2022-07-12T02:41:14;20.30;99.90
15789;DHT22;59075;50.670;6.474;2022-07-12T02:43:40;20.30;99.90
15789;DHT22;59075;50.670;6.474;2022-07-12T02:46:08;20.30;99.90
15789;DHT22;59075;50.670;6.474;2022-07-12T02:48:36;20.30;99.90
15789;DHT22;59075;50.670;6.474;2022-07-12T02:51:05;20.30;99.90
15789;DHT22;59075;50.670;6.474;2022-07-12T02:53:32;20.30;99.90
15789;DHT22;59075;50.670;6.474;2022-07-12T02:55:59;20.40;99.90
15789;DHT22;59075;50.670;6.474;2022-07-12T02:58:26;20.40;99.90
15789;DHT22;59075;50.670;6.474;2022-07-12T03:03:20;20.20;99.90
15789;DHT22;59075;50.670;6.474;2022-07-12T03:08:15;20.40;99.90
15789;DHT22;59075;50.670;6.474;2022-07-12T03:10:41;20.30;99.90
15789;DHT22;59075;50.670;6.474;2022-07-12T03:13:08;20.30;99.90
15789;DHT22;59075;50.670;6.474;2022-07-12T03:15:35;20.20;99.90
15789;DHT22;59075;50.670;6.474;2022-07-12T03:18:02;20.10;99.90
15789;DHT22;59075;50.670;6.474;2022-07-12T03:20:29;20.30;99.90
15789;DHT22;59075;50.670;6.474;2022-07-12T03:22:56;20.20;99.90
15789;DHT22;59075;50.670;6.474;2022-07-12T03:25:24;20.20;99.90
15789;DHT22;59075;50.670;6.474;2022-07-12T03:27:51;20.20;99.90
15789;DHT22;59075;50.670;6.474;2022-07-12T03:32:45;20.20;99.90
15789;DHT22;59075;50.670;6.474;2022-07-12T03:35:12;20.20;99.90
15789;DHT22;59075;50.670;6.474;2022-07-12T03:37:44;20.20;99.90
15789;DHT22;59075;50.670;6.474;2022-07-12T03:40:12;20.10;99.90
15789;DHT22;59075;50.670;6.474;2022-07-12T03:42:41;20.20;99.90
15789;DHT22;59075;50.670;6.474;2022-07-12T03:45:09;20.10;99.90
15789;DHT22;59075;50.670;6.474;2022-07-12T03:47:36;20.10;99.90
15789;DHT22;59075;50.670;6.474;2022-07-12T03:50:04;20.10;99.90
15789;DHT22;59075;50.670;6.474;2022-07-12T03:52:31;20.20;99.90
15789;DHT22;59075;50.670;6.474;2022-07-12T03:54:58;20.20;99.90
15789;DHT22;59075;50.670;6.474;2022-07-12T03:57:25;20.00;99.90
15789;DHT22;59075;50.670;6.474;2022-07-12T03:59:55;20.20;99.90
15789;DHT22;59075;50.670;6.474;2022-07-12T04:02:22;20.00;99.90
15789;DHT22;59075;50.670;6.474;2022-07-12T04:09:42;20.10;99.90
15789;DHT22;59075;50.670;6.474;2022-07-12T04:12:09;20.10;99.90
15789;DHT22;59075;50.670;6.474;2022-07-12T04:14:36;20.20;99.90
15789;DHT22;59075;50.670;6.474;2022-07-12T04:17:04;20.10;99.90
15789;DHT22;59075;50.670;6.474;2022-07-12T04:19:31;20.10;99.90
15789;DHT22;59075;50.670;6.474;2022-07-12T04:21:58;20.20;99.90
15789;DHT22;59075;50.670;6.474;2022-07-12T04:26:52;20.10;99.90
15789;DHT22;59075;50.670;6.474;2022-07-12T04:29:20;20.10;99.90
15789;DHT22;59075;50.670;6.474;2022-07-12T04:31:47;20.10;99.90
15789;DHT22;59075;50.670;6.474;2022-07-12T04:34:15;20.10;99.90
15789;DHT22;59075;50.670;6.474;2022-07-12T04:39:10;20.30;99.90
15789;DHT22;59075;50.670;6.474;2022-07-12T04:44:04;20.20;99.90
15789;DHT22;59075;50.670;6.474;2022-07-12T04:46:31;20.20;99.90
15789;DHT22;59075;50.670;6.474;2022-07-12T04:51:26;20.30;99.90
15789;DHT22;59075;50.670;6.474;2022-07-12T04:58:47;20.30;99.90
15789;DHT22;59075;50.670;6.474;2022-07-12T05:01:14;20.50;99.90
15789;DHT22;59075;50.670;6.474;2022-07-12T05:03:41;20.40;99.90
15789;DHT22;59075;50.670;6.474;2022-07-12T05:08:36;20.50;99.90
15789;DHT22;59075;50.670;6.474;2022-07-12T05:15:57;20.70;99.90
15789;DHT22;59075;50.670;6.474;2022-07-12T05:25:46;20.80;99.90
15789;DHT22;59075;50.670;6.474;2022-07-12T05:28:14;20.80;99.90
15789;DHT22;59075;50.670;6.474;2022-07-12T05:30:41;20.80;99.90
15789;DHT22;59075;50.670;6.474;2022-07-12T05:35:35;20.90;99.90
15789;DHT22;59075;50.670;6.474;2022-07-12T05:38:02;21.00;99.90
15789;DHT22;59075;50.670;6.474;2022-07-12T05:40:28;21.00;99.90
15789;DHT22;59075;50.670;6.474;2022-07-12T05:42:56;21.00;99.90
15789;DHT22;59075;50.670;6.474;2022-07-12T05:45:24;21.00;99.90
15789;DHT22;59075;50.670;6.474;2022-07-12T05:52:45;20.90;99.90
15789;DHT22;59075;50.670;6.474;2022-07-12T05:57:58;21.10;99.90
15789;DHT22;59075;50.670;6.474;2022-07-12T06:15:09;21.30;99.90
15789;DHT22;59075;50.670;6.474;2022-07-12T06:20:04;21.30;99.90
15789;DHT22;59075;50.670;6.474;2022-07-12T06:32:21;21.00;99.90
15789;DHT22;59075;50.670;6.474;2022-07-12T06:47:04;21.00;99.90
15789;DHT22;59075;50.670;6.474;2022-07-12T06:49:32;21.00;99.90
15789;DHT22;59075;50.670;6.474;2022-07-12T06:59:20;20.90;99.90
15789;DHT22;59075;50.670;6.474;2022-07-12T07:06:43;20.90;99.90
15789;DHT22;59075;50.670;6.474;2022-07-12T07:23:54;20.90;99.90
15789;DHT22;59075;50.670;6.474;2022-07-12T07:31:33;20.90;99.90
15789;DHT22;59075;50.670;6.474;2022-07-12T07:38:57;21.00;99.90
15789;DHT22;59075;50.670;6.474;2022-07-12T07:56:08;21.00;99.90
15789;DHT22;59075;50.670;6.474;2022-07-12T08:13:21;21.00;99.90
15789;DHT22;59075;50.670;6.474;2022-07-12T08:47:42;21.20;99.90
15789;DHT22;59075;50.670;6.474;2022-07-12T08:50:13;21.10;99.90
15789;DHT22;59075;50.670;6.474;2022-07-12T08:52:44;21.20;99.90
15789;DHT22;59075;50.670;6.474;2022-07-12T09:00:13;21.20;99.90
15789;DHT22;59075;50.670;6.474;2022-07-12T09:10:08;21.20;99.90
15789;DHT22;59075;50.670;6.474;2022-07-12T09:15:14;21.40;99.90
15789;DHT22;59075;50.670;6.474;2022-07-12T09:20:11;21.40;99.90
15789;DHT22;59075;50.670;6.474;2022-07-12T09:22:47;21.50;99.90
15789;DHT22;59075;50.670;6.474;2022-07-12T09:25:16;21.50;99.90
15789;DHT22;59075;50.670;6.474;2022-07-12T09:27:51;21.50;99.90
15789;DHT22;59075;50.670;6.474;2022-07-12T09:32:53;21.60;99.90
15789;DHT22;59075;50.670;6.474;2022-07-12T09:38:26;21.60;99.90
15789;DHT22;59075;50.670;6.474;2022-07-12T09:43:22;21.70;99.90
15789;DHT22;59075;50.670;6.474;2022-07-12T09:45:49;21.80;99.90
15789;DHT22;59075;50.670;6.474;2022-07-12T09:48:16;21.70;99.90
15789;DHT22;59075;50.670;6.474;2022-07-12T09:53:20;21.80;99.90
15789;DHT22;59075;50.670;6.474;2022-07-12T09:55:49;21.70;99.90
15789;DHT22;59075;50.670;6.474;2022-07-12T09:58:21;21.80;99.90
15789;DHT22;59075;50.670;6.474;2022-07-12T10:00:51;21.80;99.90
15789;DHT22;59075;50.670;6.474;2022-07-12T10:03:21;21.80;99.90
15789;DHT22;59075;50.670;6.474;2022-07-12T10:08:18;21.80;99.90
15789;DHT22;59075;50.670;6.474;2022-07-12T10:15:40;21.80;99.90
15789;DHT22;59075;50.670;6.474;2022-07-12T10:18:15;21.90;99.90
15789;DHT22;59075;50.670;6.474;2022-07-12T10:23:35;21.90;99.90
15789;DHT22;59075;50.670;6.474;2022-07-12T10:26:24;21.90;99.90
15789;DHT22;59075;50.670;6.474;2022-07-12T10:29:00;21.90;99.90
15789;DHT22;59075;50.670;6.474;2022-07-12T10:31:29;22.00;99.90
15789;DHT22;59075;50.670;6.474;2022-07-12T10:40:13;21.90;99.90
15789;DHT22;59075;50.670;6.474;2022-07-12T10:45:11;21.90;99.90
15789;DHT22;59075;50.670;6.474;2022-07-12T10:47:54;22.00;99.90
15789;DHT22;59075;50.670;6.474;2022-07-12T10:56:10;22.10;99.90
15789;DHT22;59075;50.670;6.474;2022-07-12T11:01:09;22.20;99.90
15789;DHT22;59075;50.670;6.474;2022-07-12T11:03:41;22.20;99.90
15789;DHT22;59075;50.670;6.474;2022-07-12T11:06:10;22.20;99.90
15789;DHT22;59075;50.670;6.474;2022-07-12T11:08:48;22.30;99.90
15789;DHT22;59075;50.670;6.474;2022-07-12T11:11:16;22.30;99.90
15789;DHT22;59075;50.670;6.474;2022-07-12T11:13:43;22.30;99.90
15789;DHT22;59075;50.670;6.474;2022-07-12T11:16:10;22.20;99.90
15789;DHT22;59075;50.670;6.474;2022-07-12T11:18:37;22.30;99.90
15789;DHT22;59075;50.670;6.474;2022-07-12T11:21:04;22.40;99.90
15789;DHT22;59075;50.670;6.474;2022-07-12T11:26:00;22.40;99.90
15789;DHT22;59075;50.670;6.474;2022-07-12T11:31:02;22.50;99.90
15789;DHT22;59075;50.670;6.474;2022-07-12T11:35:59;22.60;99.90
15789;DHT22;59075;50.670;6.474;2022-07-12T11:38:27;22.50;99.90
15789;DHT22;59075;50.670;6.474;2022-07-12T11:40:55;22.60;99.90
15789;DHT22;59075;50.670;6.474;2022-07-12T11:43:22;22.60;99.90
15789;DHT22;59075;50.670;6.474;2022-07-12T11:45:51;22.70;99.90
15789;DHT22;59075;50.670;6.474;2022-07-12T11:48:18;22.70;99.90
15789;DHT22;59075;50.670;6.474;2022-07-12T11:53:16;22.60;99.90
15789;DHT22;59075;50.670;6.474;2022-07-12T11:55:44;22.70;99.90
15789;DHT22;59075;50.670;6.474;2022-07-12T11:58:12;22.80;99.90
15789;DHT22;59075;50.670;6.474;2022-07-12T12:00:39;22.80;99.90
15789;DHT22;59075;50.670;6.474;2022-07-12T12:03:07;22.80;99.90
15789;DHT22;59075;50.670;6.474;2022-07-12T12:05:35;22.80;99.90
15789;DHT22;59075;50.670;6.474;2022-07-12T12:08:02;22.90;99.90
15789;DHT22;59075;50.670;6.474;2022-07-12T12:10:29;23.00;99.90
15789;DHT22;59075;50.670;6.474;2022-07-12T12:15:25;23.00;99.90
15789;DHT22;59075;50.670;6.474;2022-07-12T12:17:53;23.00;99.90
15789;DHT22;59075;50.670;6.474;2022-07-12T12:20:23;23.00;99.90
15789;DHT22;59075;50.670;6.474;2022-07-12T12:22:51;23.10;99.90
15789;DHT22;59075;50.670;6.474;2022-07-12T12:25:19;23.00;99.90
15789;DHT22;59075;50.670;6.474;2022-07-12T12:27:48;23.00;99.90
15789;DHT22;59075;50.670;6.474;2022-07-12T12:37:40;23.20;99.90
15789;DHT22;59075;50.670;6.474;2022-07-12T12:45:03;23.30;99.90
15789;DHT22;59075;50.670;6.474;2022-07-12T12:47:29;23.30;99.90
15789;DHT22;59075;50.670;6.474;2022-07-12T12:50:00;23.30;99.90
15789;DHT22;59075;50.670;6.474;2022-07-12T12:52:28;23.30;99.90
15789;DHT22;59075;50.670;6.474;2022-07-12T12:54:56;23.20;99.90
15789;DHT22;59075;50.670;6.474;2022-07-12T12:57:24;23.40;99.90
15789;DHT22;59075;50.670;6.474;2022-07-12T12:59:51;23.40;99.90
15789;DHT22;59075;50.670;6.474;2022-07-12T13:02:18;23.40;99.90
15789;DHT22;59075;50.670;6.474;2022-07-12T13:04:45;23.50;99.90
15789;DHT22;59075;50.670;6.474;2022-07-12T13:07:12;23.20;99.90
15789;DHT22;59075;50.670;6.474;2022-07-12T13:09:40;23.60;99.90
15789;DHT22;59075;50.670;6.474;2022-07-12T13:12:09;23.30;99.90
15789;DHT22;59075;50.670;6.474;2022-07-12T13:14:35;23.40;99.90
15789;DHT22;59075;50.670;6.474;2022-07-12T13:19:29;23.60;99.90
15789;DHT22;59075;50.670;6.474;2022-07-12T13:21:57;23.40;99.90
15789;DHT22;59075;50.670;6.474;2022-07-12T13:24:23;23.40;99.90
15789;DHT22;59075;50.670;6.474;2022-07-12T13:26:50;23.60;99.90
15789;DHT22;59075;50.670;6.474;2022-07-12T13:29:18;21.70;99.90
15789;DHT22;59075;50.670;6.474;2022-07-12T13:31:45;23.70;99.90
15789;DHT22;59075;50.670;6.474;2022-07-12T13:34:12;23.70;99.90
15789;DHT22;59075;50.670;6.474;2022-07-12T13:36:38;23.60;99.90
15789;DHT22;59075;50.670;6.474;2022-07-12T13:41:49;23.60;99.90
15789;DHT22;59075;50.670;6.474;2022-07-12T13:44:17;23.60;99.90
15789;DHT22;59075;50.670;6.474;2022-07-12T13:46:44;23.50;99.90
15789;DHT22;59075;50.670;6.474;2022-07-12T13:49:10;24.00;99.90
15789;DHT22;59075;50.670;6.474;2022-07-12T13:51:37;23.80;99.90
15789;DHT22;59075;50.670;6.474;2022-07-12T13:54:04;24.00;99.90
15789;DHT22;59075;50.670;6.474;2022-07-12T13:56:31;24.00;99.90
15789;DHT22;59075;50.670;6.474;2022-07-12T13:58:58;23.70;99.90
15789;DHT22;59075;50.670;6.474;2022-07-12T14:01:26;24.00;99.90
15789;DHT22;59075;50.670;6.474;2022-07-12T14:03:53;23.90;99.90
15789;DHT22;59075;50.670;6.474;2022-07-12T14:06:19;24.10;99.90
15789;DHT22;59075;50.670;6.474;2022-07-12T14:08:46;23.90;99.90
15789;DHT22;59075;50.670;6.474;2022-07-12T14:18:35;24.00;99.90
15789;DHT22;59075;50.670;6.474;2022-07-12T14:21:02;24.00;99.90
15789;DHT22;59075;50.670;6.474;2022-07-12T14:23:29;24.40;99.90
15789;DHT22;59075;50.670;6.474;2022-07-12T14:25:56;24.40;99.90
15789;DHT22;59075;50.670;6.474;2022-07-12T14:28:22;24.30;99.90
15789;DHT22;59075;50.670;6.474;2022-07-12T14:35:45;24.30;99.90
15789;DHT22;59075;50.670;6.474;2022-07-12T14:38:12;24.20;99.90
15789;DHT22;59075;50.670;6.474;2022-07-12T14:40:39;24.20;99.90
15789;DHT22;59075;50.670;6.474;2022-07-12T14:43:06;24.20;99.90
15789;DHT22;59075;50.670;6.474;2022-07-12T14:45:33;24.20;99.90
15789;DHT22;59075;50.670;6.474;2022-07-12T14:50:26;24.40;99.90
15789;DHT22;59075;50.670;6.474;2022-07-12T14:52:54;24.40;99.90
15789;DHT22;59075;50.670;6.474;2022-07-12T14:55:21;24.40;99.90
15789;DHT22;59075;50.670;6.474;2022-07-12T15:02:42;24.70;99.90
15789;DHT22;59075;50.670;6.474;2022-07-12T15:05:08;24.30;99.90
15789;DHT22;59075;50.670;6.474;2022-07-12T15:07:35;24.50;99.90
15789;DHT22;59075;50.670;6.474;2022-07-12T15:10:04;24.40;99.90
15789;DHT22;59075;50.670;6.474;2022-07-12T15:12:31;24.50;99.90
15789;DHT22;59075;50.670;6.474;2022-07-12T15:14:58;24.40;99.90
15789;DHT22;59075;50.670;6.474;2022-07-12T15:17:25;24.40;99.90
15789;DHT22;59075;50.670;6.474;2022-07-12T15:22:18;24.80;99.90
15789;DHT22;59075;50.670;6.474;2022-07-12T15:27:13;24.60;99.90
15789;DHT22;59075;50.670;6.474;2022-07-12T15:29:40;24.50;99.90
15789;DHT22;59075;50.670;6.474;2022-07-12T15:37:01;24.50;99.90
15789;DHT22;59075;50.670;6.474;2022-07-12T15:39:28;24.60;99.90
15789;DHT22;59075;50.670;6.474;2022-07-12T15:41:55;24.70;99.90
15789;DHT22;59075;50.670;6.474;2022-07-12T15:56:56;24.60;99.90
15789;DHT22;59075;50.670;6.474;2022-07-12T15:59:24;24.60;99.90
15789;DHT22;59075;50.670;6.474;2022-07-12T16:01:51;24.70;99.90
15789;DHT22;59075;50.670;6.474;2022-07-12T16:04:17;24.70;99.90
15789;DHT22;59075;50.670;6.474;2022-07-12T16:06:44;24.70;99.90
15789;DHT22;59075;50.670;6.474;2022-07-12T16:09:12;24.80;99.90
15789;DHT22;59075;50.670;6.474;2022-07-12T16:11:39;24.80;99.90
15789;DHT22;59075;50.670;6.474;2022-07-12T16:14:06;24.80;99.90
15789;DHT22;59075;50.670;6.474;2022-07-12T16:16:34;24.70;99.90
15789;DHT22;59075;50.670;6.474;2022-07-12T16:19:02;24.50;99.90
15789;DHT22;59075;50.670;6.474;2022-07-12T16:21:30;24.50;99.90
15789;DHT22;59075;50.670;6.474;2022-07-12T16:23:58;24.50;99.90
15789;DHT22;59075;50.670;6.474;2022-07-12T16:26:24;24.60;99.90
15789;DHT22;59075;50.670;6.474;2022-07-12T16:28:51;24.70;99.90
15789;DHT22;59075;50.670;6.474;2022-07-12T16:31:18;24.60;99.90
15789;DHT22;59075;50.670;6.474;2022-07-12T16:33:47;24.70;99.90
15789;DHT22;59075;50.670;6.474;2022-07-12T16:36:13;24.70;99.90
15789;DHT22;59075;50.670;6.474;2022-07-12T16:38:40;24.60;99.90
15789;DHT22;59075;50.670;6.474;2022-07-12T16:41:08;24.90;99.90
15789;DHT22;59075;50.670;6.474;2022-07-12T16:43:34;24.90;99.90
15789;DHT22;59075;50.670;6.474;2022-07-12T16:46:01;24.60;99.90
15789;DHT22;59075;50.670;6.474;2022-07-12T16:48:28;24.80;99.90
15789;DHT22;59075;50.670;6.474;2022-07-12T16:50:56;24.70;99.90
15789;DHT22;59075;50.670;6.474;2022-07-12T16:53:37;24.90;99.90
15789;DHT22;59075;50.670;6.474;2022-07-12T16:56:04;24.60;99.90
15789;DHT22;59075;50.670;6.474;2022-07-12T16:58:30;25.00;99.90
15789;DHT22;59075;50.670;6.474;2022-07-12T17:00:57;24.60;99.90
15789;DHT22;59075;50.670;6.474;2022-07-12T17:03:25;24.70;99.90
15789;DHT22;59075;50.670;6.474;2022-07-12T17:05:52;24.90;99.90
15789;DHT22;59075;50.670;6.474;2022-07-12T17:08:20;24.90;99.90
15789;DHT22;59075;50.670;6.474;2022-07-12T17:10:46;24.80;99.90
15789;DHT22;59075;50.670;6.474;2022-07-12T17:13:13;24.80;99.90
15789;DHT22;59075;50.670;6.474;2022-07-12T17:15:40;24.70;99.90
15789;DHT22;59075;50.670;6.474;2022-07-12T17:20:34;24.50;99.90
15789;DHT22;59075;50.670;6.474;2022-07-12T17:23:01;24.60;99.90
15789;DHT22;59075;50.670;6.474;2022-07-12T17:25:29;24.90;99.90
15789;DHT22;59075;50.670;6.474;2022-07-12T17:27:55;24.70;99.90
15789;DHT22;59075;50.670;6.474;2022-07-12T17:30:23;24.60;99.90
15789;DHT22;59075;50.670;6.474;2022-07-12T17:32:50;24.60;99.90
15789;DHT22;59075;50.670;6.474;2022-07-12T17:35:17;24.60;99.90
15789;DHT22;59075;50.670;6.474;2022-07-12T17:37:48;24.70;99.90
15789;DHT22;59075;50.670;6.474;2022-07-12T17:40:15;24.50;99.90
15789;DHT22;59075;50.670;6.474;2022-07-12T17:42:42;24.70;99.90
15789;DHT22;59075;50.670;6.474;2022-07-12T17:45:10;24.50;99.90
15789;DHT22;59075;50.670;6.474;2022-07-12T17:47:38;24.70;99.90
15789;DHT22;59075;50.670;6.474;2022-07-12T17:50:06;24.70;99.90
15789;DHT22;59075;50.670;6.474;2022-07-12T17:52:36;24.70;99.90
15789;DHT22;59075;50.670;6.474;2022-07-12T17:55:04;24.50;99.90
15789;DHT22;59075;50.670;6.474;2022-07-12T18:00:00;24.60;99.90
15789;DHT22;59075;50.670;6.474;2022-07-12T18:02:27;24.60;99.90
15789;DHT22;59075;50.670;6.474;2022-07-12T18:04:54;24.40;99.90
15789;DHT22;59075;50.670;6.474;2022-07-12T18:07:20;24.80;99.90
15789;DHT22;59075;50.670;6.474;2022-07-12T18:12:14;24.70;99.90
15789;DHT22;59075;50.670;6.474;2022-07-12T18:14:59;24.60;99.90
15789;DHT22;59075;50.670;6.474;2022-07-12T18:17:26;24.40;99.90
15789;DHT22;59075;50.670;6.474;2022-07-12T18:20:11;24.50;99.90
15789;DHT22;59075;50.670;6.474;2022-07-12T18:22:38;24.50;99.90
15789;DHT22;59075;50.670;6.474;2022-07-12T18:25:06;24.70;99.90
15789;DHT22;59075;50.670;6.474;2022-07-12T18:27:33;24.60;99.90
15789;DHT22;59075;50.670;6.474;2022-07-12T18:30:01;24.50;99.90
15789;DHT22;59075;50.670;6.474;2022-07-12T18:32:28;24.70;99.90
15789;DHT22;59075;50.670;6.474;2022-07-12T18:34:55;24.30;99.90
15789;DHT22;59075;50.670;6.474;2022-07-12T18:37:22;24.50;99.90
15789;DHT22;59075;50.670;6.474;2022-07-12T18:42:19;24.40;99.90
15789;DHT22;59075;50.670;6.474;2022-07-12T18:44:46;24.30;99.90
15789;DHT22;59075;50.670;6.474;2022-07-12T18:47:13;24.70;99.90
15789;DHT22;59075;50.670;6.474;2022-07-12T18:49:40;24.30;99.90
15789;DHT22;59075;50.670;6.474;2022-07-12T18:52:09;24.70;99.90
15789;DHT22;59075;50.670;6.474;2022-07-12T18:54:35;24.30;99.90
15789;DHT22;59075;50.670;6.474;2022-07-12T18:57:02;24.30;99.90
15789;DHT22;59075;50.670;6.474;2022-07-12T18:59:32;24.60;99.90
15789;DHT22;59075;50.670;6.474;2022-07-12T19:01:59;24.40;99.90
15789;DHT22;59075;50.670;6.474;2022-07-12T19:06:54;24.40;99.90
15789;DHT22;59075;50.670;6.474;2022-07-12T19:09:20;24.40;99.90
15789;DHT22;59075;50.670;6.474;2022-07-12T19:11:47;24.20;99.90
15789;DHT22;59075;50.670;6.474;2022-07-12T19:14:14;24.30;99.90
15789;DHT22;59075;50.670;6.474;2022-07-12T19:16:41;24.30;99.90
15789;DHT22;59075;50.670;6.474;2022-07-12T19:19:07;24.50;99.90
15789;DHT22;59075;50.670;6.474;2022-07-12T19:21:35;24.30;99.90
15789;DHT22;59075;50.670;6.474;2022-07-12T19:26:29;24.30;99.90
15789;DHT22;59075;50.670;6.474;2022-07-12T19:28:56;24.20;99.90
15789;DHT22;59075;50.670;6.474;2022-07-12T19:33:50;24.20;99.90
15789;DHT22;59075;50.670;6.474;2022-07-12T19:36:16;24.30;99.90
15789;DHT22;59075;50.670;6.474;2022-07-12T19:38:44;24.20;99.90
15789;DHT22;59075;50.670;6.474;2022-07-12T19:41:11;24.40;99.90
15789;DHT22;59075;50.670;6.474;2022-07-12T19:43:38;24.20;99.90
15789;DHT22;59075;50.670;6.474;2022-07-12T19:46:04;24.00;99.90
15789;DHT22;59075;50.670;6.474;2022-07-12T19:48:32;24.10;99.90
15789;DHT22;59075;50.670;6.474;2022-07-12T19:55:54;23.90;99.90
15789;DHT22;59075;50.670;6.474;2022-07-12T19:58:21;23.70;99.90
15789;DHT22;59075;50.670;6.474;2022-07-12T20:00:47;24.10;99.90
15789;DHT22;59075;50.670;6.474;2022-07-12T20:03:14;23.90;99.90
15789;DHT22;59075;50.670;6.474;2022-07-12T20:08:08;24.00;99.90
15789;DHT22;59075;50.670;6.474;2022-07-12T20:10:38;24.20;99.90
15789;DHT22;59075;50.670;6.474;2022-07-12T20:13:06;24.00;99.90
15789;DHT22;59075;50.670;6.474;2022-07-12T20:15:33;24.10;99.90
15789;DHT22;59075;50.670;6.474;2022-07-12T20:18:00;24.00;99.90
15789;DHT22;59075;50.670;6.474;2022-07-12T20:20:28;23.90;99.90
15789;DHT22;59075;50.670;6.474;2022-07-12T20:30:18;24.00;99.90
15789;DHT22;59075;50.670;6.474;2022-07-12T20:35:30;23.90;99.90
15789;DHT22;59075;50.670;6.474;2022-07-12T20:42:50;23.70;99.90
15789;DHT22;59075;50.670;6.474;2022-07-12T20:50:12;23.50;99.90
15789;DHT22;59075;50.670;6.474;2022-07-12T20:52:39;23.90;99.90
15789;DHT22;59075;50.670;6.474;2022-07-12T20:57:34;23.70;99.90
15789;DHT22;59075;50.670;6.474;2022-07-12T21:00:01;24.00;99.90
15789;DHT22;59075;50.670;6.474;2022-07-12T21:02:29;23.70;99.90
15789;DHT22;59075;50.670;6.474;2022-07-12T21:04:56;23.70;99.90
15789;DHT22;59075;50.670;6.474;2022-07-12T21:07:22;23.80;99.90
15789;DHT22;59075;50.670;6.474;2022-07-12T21:09:49;23.80;99.90
15789;DHT22;59075;50.670;6.474;2022-07-12T21:12:16;23.70;99.90
15789;DHT22;59075;50.670;6.474;2022-07-12T21:14:43;23.80;99.90
15789;DHT22;59075;50.670;6.474;2022-07-12T21:17:11;23.70;99.90
15789;DHT22;59075;50.670;6.474;2022-07-12T21:19:39;23.70;99.90
15789;DHT22;59075;50.670;6.474;2022-07-12T21:22:06;23.70;99.90
15789;DHT22;59075;50.670;6.474;2022-07-12T21:24:32;23.70;99.90
15789;DHT22;59075;50.670;6.474;2022-07-12T21:26:59;23.70;99.90
15789;DHT22;59075;50.670;6.474;2022-07-12T21:29:27;23.50;99.90
15789;DHT22;59075;50.670;6.474;2022-07-12T21:31:54;23.60;99.90
15789;DHT22;59075;50.670;6.474;2022-07-12T21:34:21;23.70;99.90
15789;DHT22;59075;50.670;6.474;2022-07-12T21:36:49;23.70;99.90
15789;DHT22;59075;50.670;6.474;2022-07-12T21:39:16;23.80;99.90
15789;DHT22;59075;50.670;6.474;2022-07-12T21:44:10;23.60;99.90
15789;DHT22;59075;50.670;6.474;2022-07-12T21:46:36;23.60;99.90
15789;DHT22;59075;50.670;6.474;2022-07-12T21:49:03;23.70;99.90
15789;DHT22;59075;50.670;6.474;2022-07-12T21:51:29;23.60;99.90
15789;DHT22;59075;50.670;6.474;2022-07-12T21:53:57;23.70;99.90
15789;DHT22;59075;50.670;6.474;2022-07-12T21:56:24;23.70;99.90
15789;DHT22;59075;50.670;6.474;2022-07-12T21:58:51;23.70;99.90
15789;DHT22;59075;50.670;6.474;2022-07-12T22:01:17;23.60;99.90